Flight Track Log - Related Links

Times and Time Zones

All times are in EDT time to prevent confusion due to time zone crossing. See the CSN6839 flight status page for this flight to view local times or setup timezone preferences in your user account.

Time Position Orientation Groundspeed Altitude Reporting Facility
EDT Latitude Longitude Course Direction KTS MPH feet Rate Location/Type
Sun 04:37:00 AM 43.8263 87.2960 238° Southwest  Level Estimated
Sun 04:38:00 AM 43.7453 87.1182 238° Southwest  Level Estimated
Sun 04:39:00 AM 43.6640 86.9408 238° Southwest  Level Estimated
Sun 04:40:00 AM 43.5824 86.7640 238° Southwest  Level Estimated
Sun 04:41:00 AM 43.5005 86.5876 237° Southwest  Level Estimated
Sun 04:42:00 AM 43.4184 86.4118 237° Southwest  Level Estimated
Sun 04:43:00 AM 43.3359 86.2364 237° Southwest  Level Estimated
Sun 04:44:00 AM 43.2533 86.0614 237° Southwest  Level Estimated
Sun 04:45:00 AM 43.1703 85.8870 237° Southwest  Level Estimated
Sun 04:46:00 AM 43.0871 85.7130 237° Southwest  Level Estimated
Sun 04:47:00 AM 43.0037 85.5395 237° Southwest  Level Estimated
Sun 04:48:00 AM 42.9199 85.3665 237° Southwest  Level Estimated
Sun 04:49:00 AM 42.8359 85.1939 236° Southwest  Level Estimated
Sun 04:50:00 AM 42.7517 85.0218 236° Southwest  Level Estimated
Sun 04:51:00 AM 42.6672 84.8502 236° Southwest  Level Estimated
Sun 04:52:00 AM 42.5824 84.6790 236° Southwest  Level Estimated
Sun 04:53:00 AM 42.4974 84.5083 236° Southwest  Level Estimated
Sun 04:54:00 AM 42.4122 84.3381 236° Southwest  Level Estimated
Sun 04:55:00 AM 42.3266 84.1683 236° Southwest  Level Estimated
Sun 04:56:00 AM 42.2409 83.9990 236° Southwest  Level Estimated
Sun 04:57:00 AM 42.1549 83.8301 236° Southwest  Level Estimated
Sun 04:58:00 AM 42.0686 83.6618 235° Southwest  Level Estimated
Sun 04:59:00 AM 41.9821 83.4938 235° Southwest  Level Estimated
Sun 05:00:00 AM 41.8954 83.3264 235° Southwest  Level Estimated
Sun 05:01:00 AM 41.8084 83.1593 235° Southwest  Level Estimated
Sun 05:02:00 AM 41.7211 82.9928 235° Southwest  Level Estimated
Sun 05:03:00 AM 41.7181 82.9869 235° Southwest  Level Estimated
Sun 05:04:00 AM 41.7181 82.9869 143° Southeast  Level Estimated
Sun 05:05:00 AM 41.7181 82.9869 143° Southeast  Level Estimated
Sun 05:06:00 AM 41.7181 82.9869 143° Southeast  Level Estimated
Sun 05:07:00 AM 41.7181 82.9869 143° Southeast  Level Estimated
Sun 05:08:00 AM 41.7181 82.9869 143° Southeast  Level Estimated
Sun 05:09:00 AM 41.7181 82.9869 143° Southeast  Level Estimated
Sun 05:10:00 AM 41.7181 82.9869 143° Southeast  Level Estimated
Sun 05:11:00 AM 41.7181 82.9869 143° Southeast  Level Estimated
Sun 05:12:00 AM 41.7181 82.9869 143° Southeast  Level Estimated
Sun 05:13:00 AM 41.7181 82.9869 143° Southeast  Level Estimated
Sun 05:14:00 AM 41.7181 82.9869 143° Southeast  Level Estimated
Sun 05:15:00 AM 41.7181 82.9869 143° Southeast  Level Estimated

Login

Don't have an account? Register now (free) for customized features, flight alerts, and more!